Rowesville, SC (29133)

8:33 AM EST on March 03, 2015 (GMT -0500)
Orangeburg Municipal | Change Station
CLOSE
Current Station
Airport
Location: Orangeburg,
Elevation: 197 ft
Nearby Weather Stations

Elev 197 ft 33.46 °N, 80.86 °W | Updated 26 minutes ago

Overcast
Overcast
51 °F
Feels Like 51 °F
N
7
Wind Variable Wind from ENE

Today
High -- | Low -- °F
--% Chance of Precip.
Yesterday
High -- | Low -- °F
Precip. -- in
6:49 AM 6:21 PM
Waxing Gibbous, 96% visible
Pressure 30.29 in
Visibility 4.0 miles
Clouds Overcast 800 ft
Dew Point 48 °F
Humidity 89%
Rainfall 0.00 in
Snow Depth Not available.
UV 0 out of 12
Pollen .30 out of 12
Air Quality Not available.
Flu Activity Not available.
SPECI KOGB 031307Z AUTO 07006KT 4SM -RA BR OVC008 11/09 A3029 RMK AO2 P0000 T01060089

More Conditions Fewer Conditions

Pressure 30.29 in
Visibility 4.0 miles
Clouds Overcast 800 ft
Dew Point 48 °F
Humidity 89%
Rainfall 0.00 in
Snow Depth Not available.
UV 0 out of 12
Pollen .30 out of 12
Air Quality Not available.
Flu Activity Not available.
SPECI KOGB 031307Z AUTO 07006KT 4SM -RA BR OVC008 11/09 A3029 RMK AO2 P0000 T01060089

More Conditions Fewer Conditions

10-Day Weather Forecast

Almanac

Astronomy

Mar. 03, 2015 Rise Set
Actual Time
Civil Twilight
Nautical Twilight
Astronomical Twilight
Moon
Length of Visible Light
Length of Day
Tomorrow will be .
, % of the Moon is Illuminated

Today's Extremes

State Highs State Lows

Community

WunderPhotos

Upload Photos

1,802,101 photos uploaded!

WunderBlogs® & News

Nearby

Air Quality

  Air Quality AQ Index Pollutant
Not available.

Snow Depth

Station Depth Elevation

Earthquake Activity

City Distance Mag. Time & Date
Minimum magnitude displayed is 2.5.

Coastal Water Temperatures

Place Temperature

Nearby Weather Stations